createdAt,value
2023-05-16T00:00:35.216Z,9.99
2023-05-16T00:02:35.510Z,9.99
2023-05-16T00:03:03.267Z,10.07
2023-05-16T00:05:29.890Z,10.37
2023-05-16T00:07:35.312Z,10.37
2023-05-16T00:07:56.300Z,10.36
2023-05-16T00:10:22.762Z,10.36
2023-05-16T00:12:35.429Z,10.36
2023-05-16T00:12:51.631Z,10.35
2023-05-16T00:15:20.297Z,10.35
2023-05-16T00:17:35.373Z,10.35
2023-05-16T00:17:49.487Z,10.19
2023-05-16T00:20:17.306Z,9.12
2023-05-16T00:22:35.329Z,9.12
2023-05-16T00:22:43.969Z,10.23
2023-05-16T00:25:10.396Z,10.29
2023-05-16T00:27:35.342Z,10.29
2023-05-16T00:27:37.062Z,8.85
2023-05-16T00:30:04.205Z,9.94
2023-05-16T00:32:31.530Z,10.23
2023-05-16T00:32:35.353Z,10.23
2023-05-16T00:34:57.965Z,10.17
2023-05-16T00:37:24.441Z,10.14
2023-05-16T00:37:35.319Z,10.14
2023-05-16T00:39:50.799Z,10.13
2023-05-16T00:42:19.752Z,10.13
2023-05-16T00:42:35.370Z,10.13
2023-05-16T00:44:46.384Z,10.04
2023-05-16T00:47:12.965Z,9.71
2023-05-16T00:47:35.399Z,9.71
2023-05-16T00:49:39.600Z,8.70
2023-05-16T00:52:06.320Z,9.99
2023-05-16T00:52:35.325Z,9.99
2023-05-16T00:54:33.804Z,8.57
2023-05-16T00:57:00.302Z,9.74
2023-05-16T00:57:35.333Z,9.74
2023-05-16T00:59:27.330Z,9.50
2023-05-16T01:01:53.933Z,9.65
2023-05-16T01:02:35.465Z,9.65
2023-05-16T01:04:21.207Z,9.62
2023-05-16T01:06:47.657Z,9.64
2023-05-16T01:07:35.355Z,9.64
2023-05-16T01:09:14.514Z,9.23
2023-05-16T01:11:53.313Z,9.64
2023-05-16T01:12:35.416Z,9.64
2023-05-16T01:14:38.604Z,9.57
2023-05-16T01:17:23.413Z,9.57
2023-05-16T01:17:35.410Z,9.57
2023-05-16T01:20:15.577Z,9.49
2023-05-16T01:22:35.356Z,9.49
2023-05-16T01:22:46.010Z,9.45
2023-05-16T01:25:32.047Z,8.83
2023-05-16T01:27:35.344Z,8.83
2023-05-16T01:27:59.358Z,8.84
2023-05-16T01:30:25.758Z,8.86
2023-05-16T01:32:35.373Z,8.86
2023-05-16T01:32:52.667Z,8.75
2023-05-16T01:35:19.264Z,9.28
2023-05-16T01:37:35.347Z,9.28
2023-05-16T01:38:04.644Z,9.32
2023-05-16T01:40:46.373Z,9.35
2023-05-16T01:42:35.325Z,9.35
2023-05-16T01:43:17.493Z,9.13
2023-05-16T01:45:57.721Z,9.31
2023-05-16T01:47:35.378Z,9.31
2023-05-16T01:48:30.750Z,9.25
2023-05-16T01:51:00.785Z,8.82
2023-05-16T01:52:35.376Z,8.82
2023-05-16T01:53:33.387Z,9.21
2023-05-16T01:56:02.566Z,9.29
2023-05-16T01:57:35.346Z,9.29
2023-05-16T01:58:31.950Z,9.17
2023-05-16T02:01:03.694Z,9.18
2023-05-16T02:02:35.393Z,9.18
2023-05-16T02:03:34.414Z,8.74
2023-05-16T02:06:01.102Z,9.07
2023-05-16T02:07:35.338Z,9.07
2023-05-16T02:08:29.073Z,9.11
2023-05-16T02:10:55.522Z,9.10
2023-05-16T02:12:35.396Z,9.10
2023-05-16T02:13:22.110Z,9.03
2023-05-16T02:15:48.503Z,8.40
2023-05-16T02:17:35.508Z,8.40
2023-05-16T02:18:14.862Z,8.77
2023-05-16T02:20:41.288Z,8.89
2023-05-16T02:22:35.519Z,8.89
2023-05-16T02:23:07.680Z,7.62
2023-05-16T02:25:34.046Z,8.11
2023-05-16T02:27:35.515Z,8.11
2023-05-16T02:28:00.509Z,8.85
2023-05-16T02:30:26.912Z,8.82
2023-05-16T02:32:35.589Z,8.82
2023-05-16T02:32:54.155Z,8.86
2023-05-16T02:35:20.930Z,8.84
2023-05-16T02:37:35.568Z,8.84
2023-05-16T02:37:47.449Z,8.83
2023-05-16T02:40:14.041Z,8.79
2023-05-16T02:42:35.578Z,8.79
2023-05-16T02:42:40.381Z,8.82
2023-05-16T02:45:07.075Z,8.78
2023-05-16T02:47:33.496Z,8.42
2023-05-16T02:47:35.643Z,8.42
2023-05-16T02:49:59.878Z,8.44
2023-05-16T02:52:26.371Z,8.72
2023-05-16T02:52:35.755Z,8.72
2023-05-16T02:57:22.028Z,8.25
2023-05-16T02:57:35.741Z,8.25
2023-05-16T02:59:48.496Z,8.65
2023-05-16T03:02:14.917Z,8.67
2023-05-16T03:02:35.802Z,8.67
2023-05-16T03:04:41.258Z,8.62
2023-05-16T03:07:07.660Z,8.64
2023-05-16T03:07:35.695Z,8.64
2023-05-16T03:09:34.238Z,8.13
2023-05-16T03:12:00.759Z,8.15
2023-05-16T03:12:35.801Z,8.15
2023-05-16T03:14:27.078Z,8.47
2023-05-16T03:16:53.451Z,8.54
2023-05-16T03:17:35.646Z,8.54
2023-05-16T03:19:20.033Z,8.45
2023-05-16T03:21:46.543Z,8.37
2023-05-16T03:22:35.608Z,8.37
2023-05-16T03:24:12.893Z,8.53
2023-05-16T03:26:39.282Z,8.11
2023-05-16T03:27:35.595Z,8.11
2023-05-16T03:29:05.685Z,8.55
2023-05-16T03:31:32.436Z,8.55
2023-05-16T03:32:35.636Z,8.55
2023-05-16T03:33:59.312Z,8.26
2023-05-16T03:36:27.242Z,8.40
2023-05-16T03:37:35.576Z,8.40
2023-05-16T03:38:53.614Z,8.24
2023-05-16T03:41:19.931Z,8.48
2023-05-16T03:42:35.607Z,8.48
2023-05-16T03:43:48.633Z,8.24
2023-05-16T03:46:15.079Z,8.48
2023-05-16T03:47:35.621Z,8.48
2023-05-16T03:48:41.495Z,8.33
2023-05-16T03:51:07.836Z,8.30
2023-05-16T03:52:35.630Z,8.30
2023-05-16T03:53:34.177Z,8.28
2023-05-16T03:56:00.576Z,8.31
2023-05-16T03:57:35.599Z,8.31
2023-05-16T03:58:27.100Z,8.35
2023-05-16T04:00:53.438Z,8.33
2023-05-16T04:02:35.723Z,8.33
2023-05-16T04:03:20.179Z,8.28
2023-05-16T04:05:46.633Z,8.27
2023-05-16T04:07:35.641Z,8.27
2023-05-16T04:08:13.132Z,8.26
2023-05-16T04:10:39.521Z,8.20
2023-05-16T04:12:35.708Z,8.20
2023-05-16T04:13:05.975Z,7.54
2023-05-16T04:15:32.449Z,7.90
2023-05-16T04:17:35.734Z,7.90
2023-05-16T04:17:58.863Z,8.08
2023-05-16T04:20:25.356Z,7.96
2023-05-16T04:22:35.602Z,7.96
2023-05-16T04:22:51.977Z,7.72
2023-05-16T04:25:18.487Z,7.13
2023-05-16T04:27:35.682Z,7.13
2023-05-16T04:27:45.300Z,7.82
2023-05-16T04:30:14.803Z,7.71
2023-05-16T04:32:35.643Z,7.71
2023-05-16T04:32:41.309Z,7.44
2023-05-16T04:35:09.117Z,7.74
2023-05-16T04:37:35.886Z,7.51
2023-05-16T04:37:36.034Z,7.51
2023-05-16T04:40:02.379Z,6.94
2023-05-16T04:42:28.755Z,7.34
2023-05-16T04:42:35.631Z,7.34
2023-05-16T04:44:56.255Z,7.57
2023-05-16T04:47:22.712Z,7.42
2023-05-16T04:47:35.655Z,7.42
2023-05-16T04:49:49.066Z,7.46
2023-05-16T04:52:15.788Z,8.33
2023-05-16T04:52:35.625Z,8.33
2023-05-16T04:54:42.334Z,8.86
2023-05-16T04:57:08.687Z,8.92
2023-05-16T04:57:35.652Z,8.92
2023-05-16T04:59:35.087Z,8.61
2023-05-16T05:02:01.494Z,9.84
2023-05-16T05:02:35.692Z,9.84
2023-05-16T05:04:27.989Z,9.51
2023-05-16T05:06:54.461Z,10.78
2023-05-16T05:07:35.623Z,10.78
2023-05-16T05:09:20.873Z,10.64
2023-05-16T05:11:47.285Z,10.82
2023-05-16T05:12:35.748Z,10.82
2023-05-16T05:14:13.686Z,10.96
2023-05-16T05:16:40.935Z,11.11
2023-05-16T05:17:35.813Z,11.11
2023-05-16T05:19:08.909Z,11.70
2023-05-16T05:21:35.452Z,11.96
2023-05-16T05:22:35.647Z,11.96
2023-05-16T05:24:01.832Z,11.90
2023-05-16T05:26:29.030Z,11.62
2023-05-16T05:27:35.636Z,11.62
2023-05-16T05:29:04.779Z,11.52
2023-05-16T05:31:33.637Z,11.58
2023-05-16T05:32:35.694Z,11.58
2023-05-16T05:34:00.697Z,11.14
2023-05-16T05:36:27.407Z,11.49
2023-05-16T05:37:35.643Z,11.49
2023-05-16T05:38:53.779Z,11.91
2023-05-16T05:41:21.665Z,12.42
2023-05-16T05:42:35.619Z,12.42
2023-05-16T05:43:50.406Z,12.43
2023-05-16T05:46:17.336Z,12.51
2023-05-16T05:47:35.663Z,12.51
2023-05-16T05:48:43.975Z,12.84
2023-05-16T05:51:10.463Z,12.78
2023-05-16T05:52:35.657Z,12.78
2023-05-16T05:53:36.859Z,13.10
2023-05-16T05:56:03.290Z,13.14
2023-05-16T05:57:35.644Z,13.14
2023-05-16T05:58:29.678Z,13.46
2023-05-16T06:00:56.036Z,13.22
2023-05-16T06:02:35.774Z,13.22
2023-05-16T06:03:22.414Z,13.71
2023-05-16T06:05:48.994Z,13.06
2023-05-16T06:07:35.653Z,13.06
2023-05-16T06:08:15.448Z,12.95
2023-05-16T06:10:41.865Z,12.60
2023-05-16T06:12:35.634Z,12.60
2023-05-16T06:13:08.234Z,12.21
2023-05-16T06:15:34.596Z,11.72
2023-05-16T06:17:35.694Z,11.72
2023-05-16T06:18:03.224Z,11.27
2023-05-16T06:20:29.704Z,11.04
2023-05-16T06:22:35.663Z,11.04
2023-05-16T06:22:56.448Z,10.79
2023-05-16T06:25:22.870Z,10.33
2023-05-16T06:27:35.664Z,10.33
2023-05-16T06:27:49.293Z,10.69
2023-05-16T06:30:16.047Z,11.05
2023-05-16T06:32:35.697Z,11.05
2023-05-16T06:32:42.423Z,11.05
2023-05-16T06:35:09.657Z,10.92
2023-05-16T06:37:36.266Z,11.04
2023-05-16T06:37:36.418Z,11.04
2023-05-16T06:40:03.123Z,10.48
2023-05-16T06:42:29.563Z,10.77
2023-05-16T06:42:35.617Z,10.77
2023-05-16T06:44:55.982Z,10.86
2023-05-16T06:47:22.921Z,11.21
2023-05-16T06:47:35.695Z,11.21
2023-05-16T06:49:49.380Z,10.97
2023-05-16T06:52:15.943Z,10.96
2023-05-16T06:52:35.689Z,10.96
2023-05-16T06:54:42.494Z,11.27
2023-05-16T06:57:09.082Z,11.21
2023-05-16T06:57:35.735Z,11.21
2023-05-16T06:59:36.220Z,10.91
2023-05-16T07:02:02.872Z,11.10
2023-05-16T07:02:35.796Z,11.10
2023-05-16T07:04:29.330Z,10.51
2023-05-16T07:06:55.727Z,10.68
2023-05-16T07:07:35.645Z,10.68
2023-05-16T07:09:22.186Z,10.82
2023-05-16T07:11:48.648Z,10.69
2023-05-16T07:12:35.681Z,10.69
2023-05-16T07:14:15.104Z,11.20
2023-05-16T07:16:41.958Z,11.34
2023-05-16T07:17:35.689Z,11.34
2023-05-16T07:19:08.618Z,10.86
2023-05-16T07:21:35.153Z,11.03
2023-05-16T07:22:35.659Z,11.03
2023-05-16T07:24:01.763Z,11.09
2023-05-16T07:26:28.238Z,11.34
2023-05-16T07:27:35.669Z,11.34
2023-05-16T07:28:55.303Z,11.73
2023-05-16T07:31:21.725Z,11.87
2023-05-16T07:32:35.702Z,11.87
2023-05-16T07:33:49.173Z,12.31
2023-05-16T07:36:17.231Z,12.13
2023-05-16T07:37:35.694Z,12.13
2023-05-16T07:38:44.820Z,12.30
2023-05-16T07:41:11.495Z,12.59
2023-05-16T07:42:35.710Z,12.59
2023-05-16T07:43:37.932Z,12.68
2023-05-16T07:46:05.264Z,12.38
2023-05-16T07:47:35.755Z,12.38
2023-05-16T07:48:31.789Z,12.19
2023-05-16T07:50:58.165Z,12.48
2023-05-16T07:52:35.644Z,12.48
2023-05-16T07:53:24.767Z,11.83
2023-05-16T07:55:51.227Z,12.36
2023-05-16T07:57:35.691Z,12.36
2023-05-16T07:58:17.797Z,12.61
2023-05-16T08:00:44.206Z,12.08
2023-05-16T08:02:35.797Z,12.08
2023-05-16T08:03:10.905Z,12.21
2023-05-16T08:05:37.499Z,11.96
2023-05-16T08:07:35.681Z,11.96
2023-05-16T08:08:04.131Z,12.41
2023-05-16T08:10:30.548Z,11.90
2023-05-16T08:12:35.691Z,11.90
2023-05-16T08:12:57.018Z,11.51
2023-05-16T08:15:23.435Z,11.81
2023-05-16T08:17:35.732Z,11.81
2023-05-16T08:17:50.721Z,12.34
2023-05-16T08:20:17.437Z,11.90
2023-05-16T08:22:35.657Z,11.90
2023-05-16T08:22:43.905Z,12.28
2023-05-16T08:25:10.495Z,12.35
2023-05-16T08:27:36.938Z,12.10
2023-05-16T08:27:37.085Z,12.10
2023-05-16T08:30:03.805Z,12.14
2023-05-16T08:32:30.600Z,12.38
2023-05-16T08:32:35.766Z,12.38
2023-05-16T08:34:57.079Z,12.48
2023-05-16T08:37:23.513Z,11.83
2023-05-16T08:37:35.766Z,11.83
2023-05-16T08:39:49.933Z,11.69
2023-05-16T08:42:16.536Z,11.76
2023-05-16T08:42:35.699Z,11.76
2023-05-16T08:44:42.998Z,12.33
2023-05-16T08:47:18.076Z,12.05
2023-05-16T08:47:35.732Z,12.05
2023-05-16T08:49:48.553Z,12.20
2023-05-16T08:52:19.431Z,12.75
2023-05-16T08:52:35.700Z,12.75
2023-05-16T08:54:50.342Z,12.67
2023-05-16T08:57:22.114Z,12.57
2023-05-16T08:57:35.685Z,12.57
2023-05-16T08:59:49.222Z,12.41
2023-05-16T09:02:15.936Z,11.97
2023-05-16T09:02:35.753Z,11.97
2023-05-16T09:04:43.253Z,12.08
2023-05-16T09:07:09.932Z,11.68
2023-05-16T09:07:35.688Z,11.68
2023-05-16T09:09:36.415Z,13.08
2023-05-16T09:12:02.929Z,12.10
2023-05-16T09:12:35.725Z,12.10
2023-05-16T09:14:29.615Z,12.18
2023-05-16T09:17:12.186Z,12.84
2023-05-16T09:17:40.072Z,12.84
2023-05-16T09:19:40.375Z,13.38
2023-05-16T09:22:11.118Z,13.30
2023-05-16T09:22:35.721Z,13.30
2023-05-16T09:24:42.320Z,13.01
2023-05-16T09:27:13.759Z,13.02
2023-05-16T09:27:35.715Z,13.02
2023-05-16T09:29:41.891Z,12.89
2023-05-16T09:32:16.026Z,12.56
2023-05-16T09:32:35.764Z,12.56
2023-05-16T09:34:49.773Z,12.29
2023-05-16T09:37:16.215Z,12.98
2023-05-16T09:37:35.663Z,12.98
2023-05-16T09:39:50.058Z,12.88
2023-05-16T09:42:18.880Z,13.33
2023-05-16T09:42:36.738Z,13.33
2023-05-16T09:44:54.194Z,13.34
2023-05-16T09:47:21.663Z,13.05
2023-05-16T09:47:35.686Z,13.05
2023-05-16T09:49:52.765Z,12.95
2023-05-16T09:52:19.318Z,12.69
2023-05-16T09:52:35.729Z,12.69
2023-05-16T09:57:35.712Z,13.19
2023-05-16T09:58:38.094Z,13.31
2023-05-16T10:01:05.481Z,13.85
2023-05-16T10:02:35.871Z,13.85
2023-05-16T10:03:35.257Z,13.90
2023-05-16T10:06:02.932Z,12.94
2023-05-16T10:07:35.729Z,12.94
2023-05-16T10:08:32.088Z,13.03
2023-05-16T10:10:58.664Z,13.41
2023-05-16T10:12:35.682Z,13.41
2023-05-16T10:13:29.535Z,13.67
2023-05-16T10:15:57.576Z,13.73
2023-05-16T10:17:35.716Z,13.73
2023-05-16T10:18:30.912Z,13.85
2023-05-16T10:21:05.486Z,14.04
2023-05-16T10:22:35.711Z,14.04
2023-05-16T10:23:33.505Z,13.94
2023-05-16T10:26:03.436Z,13.52
2023-05-16T10:27:35.698Z,13.52
2023-05-16T10:28:30.082Z,13.89
2023-05-16T10:30:57.425Z,13.70
2023-05-16T10:32:35.747Z,13.70
2023-05-16T10:33:24.586Z,14.05
2023-05-16T10:35:51.438Z,14.54
2023-05-16T10:37:35.838Z,14.54
2023-05-16T10:38:19.836Z,14.50
2023-05-16T10:40:48.059Z,14.78
2023-05-16T10:42:35.685Z,14.78
2023-05-16T10:43:27.028Z,14.94
2023-05-16T10:45:58.428Z,14.83
2023-05-16T10:47:35.824Z,14.83
2023-05-16T10:48:36.659Z,14.56
2023-05-16T10:51:04.652Z,14.28
2023-05-16T10:52:35.691Z,14.28
2023-05-16T10:53:35.925Z,13.40
2023-05-16T10:56:03.020Z,13.98
2023-05-16T10:57:35.722Z,13.98
2023-05-16T10:58:38.733Z,13.84
2023-05-16T11:01:18.472Z,13.53
2023-05-16T11:02:35.841Z,13.53
2023-05-16T11:03:57.313Z,13.68
2023-05-16T11:06:25.396Z,13.49
2023-05-16T11:07:35.686Z,13.49
2023-05-16T11:09:09.549Z,13.67
2023-05-16T11:12:01.180Z,13.73
2023-05-16T11:12:35.696Z,13.73
2023-05-16T11:14:38.500Z,13.89
2023-05-16T11:17:22.842Z,13.74
2023-05-16T11:17:36.635Z,13.74
2023-05-16T11:19:51.304Z,13.50
2023-05-16T11:22:23.883Z,13.50
2023-05-16T11:22:35.715Z,13.50
2023-05-16T11:25:01.222Z,13.40
2023-05-16T11:27:32.730Z,13.28
2023-05-16T11:27:35.718Z,13.28
2023-05-16T11:30:05.373Z,13.17
2023-05-16T11:32:33.826Z,13.27
2023-05-16T11:32:35.890Z,57.14
2023-05-16T11:35:00.738Z,13.44
2023-05-16T11:37:27.194Z,12.74
2023-05-16T11:37:35.836Z,12.74
2023-05-16T11:39:54.357Z,13.15
2023-05-16T11:42:20.969Z,13.26
2023-05-16T11:42:35.709Z,13.26
2023-05-16T11:44:47.417Z,13.86
2023-05-16T11:47:14.052Z,13.45
2023-05-16T11:47:35.726Z,13.45
2023-05-16T11:49:41.352Z,14.34
2023-05-16T11:52:08.445Z,14.50
2023-05-16T11:52:35.731Z,14.50
2023-05-16T11:54:37.678Z,14.68
2023-05-16T11:57:04.407Z,14.48
2023-05-16T11:57:35.723Z,14.48
2023-05-16T11:59:31.120Z,14.92
2023-05-16T12:01:57.522Z,15.22
2023-05-16T12:02:35.791Z,15.22
2023-05-16T12:04:26.661Z,15.23
2023-05-16T12:07:01.191Z,15.30
2023-05-16T12:07:36.728Z,15.30
2023-05-16T12:09:27.635Z,15.29
2023-05-16T12:11:54.214Z,14.76
2023-05-16T12:12:35.776Z,14.76
2023-05-16T12:14:21.139Z,13.91
2023-05-16T12:16:50.588Z,13.73
2023-05-16T12:17:35.824Z,13.73
2023-05-16T12:19:17.431Z,12.18
2023-05-16T12:21:43.911Z,13.46
2023-05-16T12:22:35.757Z,13.46
2023-05-16T12:24:12.683Z,13.46
2023-05-16T12:26:40.888Z,13.86
2023-05-16T12:27:35.743Z,13.86
2023-05-16T12:29:07.990Z,12.84
2023-05-16T12:31:40.302Z,13.64
2023-05-16T12:32:35.921Z,13.64
2023-05-16T12:34:17.491Z,12.97
2023-05-16T12:36:44.470Z,13.42
2023-05-16T12:37:35.695Z,13.42
2023-05-16T12:39:13.991Z,13.56
2023-05-16T12:41:44.845Z,13.34
2023-05-16T12:42:35.735Z,13.34
2023-05-16T12:44:17.774Z,13.51
2023-05-16T12:46:49.830Z,13.59
2023-05-16T12:47:35.776Z,13.59
2023-05-16T12:49:20.037Z,13.40
2023-05-16T12:51:55.084Z,13.45
2023-05-16T12:52:35.748Z,13.45
2023-05-16T12:54:23.993Z,14.12
2023-05-16T12:56:50.482Z,14.74
2023-05-16T12:57:36.925Z,14.74
2023-05-16T12:59:17.405Z,14.54
2023-05-16T13:01:45.728Z,14.49
2023-05-16T13:02:35.811Z,14.49
2023-05-16T13:04:16.713Z,15.04
2023-05-16T13:06:57.583Z,15.40
2023-05-16T13:07:35.716Z,15.40
2023-05-16T13:09:28.926Z,15.31
2023-05-16T13:11:57.710Z,15.41
2023-05-16T13:12:35.727Z,15.41
2023-05-16T13:14:24.135Z,15.90
2023-05-16T13:16:51.430Z,15.49
2023-05-16T13:17:35.787Z,15.49
2023-05-16T13:19:18.029Z,14.69
2023-05-16T13:21:44.479Z,15.64
2023-05-16T13:22:35.735Z,15.64
2023-05-16T13:24:10.882Z,15.82
2023-05-16T13:26:37.495Z,15.63
2023-05-16T13:27:35.727Z,15.63
2023-05-16T13:29:03.893Z,16.14
2023-05-16T13:31:30.373Z,16.79
2023-05-16T13:32:35.874Z,16.79
2023-05-16T13:33:56.851Z,16.35
2023-05-16T13:36:23.241Z,16.72
2023-05-16T13:37:35.720Z,16.72
2023-05-16T13:38:49.657Z,16.41
2023-05-16T13:41:16.096Z,16.51
2023-05-16T13:42:35.711Z,16.51
2023-05-16T13:43:42.464Z,16.67
2023-05-16T13:46:09.045Z,16.20
2023-05-16T13:47:35.781Z,16.20
2023-05-16T13:48:35.650Z,16.09
2023-05-16T13:51:02.042Z,15.71
2023-05-16T13:52:37.721Z,15.71
2023-05-16T13:53:28.466Z,16.22
2023-05-16T13:55:56.990Z,16.35
2023-05-16T13:57:35.732Z,16.35
2023-05-16T13:58:23.334Z,15.93
2023-05-16T14:00:50.853Z,15.77
2023-05-16T14:02:35.755Z,15.77
2023-05-16T14:03:17.744Z,16.01
2023-05-16T14:05:44.360Z,16.72
2023-05-16T14:07:35.739Z,16.72
2023-05-16T14:08:10.764Z,16.76
2023-05-16T14:10:37.198Z,16.65
2023-05-16T14:12:35.737Z,16.65
2023-05-16T14:13:03.628Z,16.30
2023-05-16T14:15:30.531Z,15.87
2023-05-16T14:17:35.742Z,15.87
2023-05-16T14:17:57.409Z,15.85
2023-05-16T14:20:23.860Z,15.61
2023-05-16T14:22:35.736Z,15.61
2023-05-16T14:22:50.244Z,15.52
2023-05-16T14:25:16.760Z,15.81
2023-05-16T14:27:35.737Z,15.81
2023-05-16T14:27:43.136Z,16.13
2023-05-16T14:30:09.992Z,17.13
2023-05-16T14:32:36.477Z,16.74
2023-05-16T14:32:36.781Z,16.74
2023-05-16T14:35:05.274Z,16.32
2023-05-16T14:37:31.777Z,16.00
2023-05-16T14:37:35.715Z,16.00
2023-05-16T14:39:59.587Z,15.97
2023-05-16T14:42:26.448Z,15.86
2023-05-16T14:42:35.863Z,15.86
2023-05-16T14:44:53.138Z,15.97
2023-05-16T14:47:22.353Z,16.36
2023-05-16T14:47:35.773Z,16.36
2023-05-16T14:49:48.778Z,16.27
2023-05-16T14:52:15.356Z,15.00
2023-05-16T14:52:35.730Z,15.00
2023-05-16T14:54:44.000Z,16.22
2023-05-16T14:57:10.566Z,15.93
2023-05-16T14:57:35.780Z,15.93
2023-05-16T14:59:39.512Z,16.31
2023-05-16T15:02:06.748Z,16.62
2023-05-16T15:02:35.742Z,16.62
2023-05-16T15:04:33.333Z,16.39
2023-05-16T15:06:59.779Z,16.24
2023-05-16T15:07:35.792Z,16.24
2023-05-16T15:09:26.261Z,16.55
2023-05-16T15:11:52.706Z,15.71
2023-05-16T15:12:35.741Z,15.71
2023-05-16T15:14:19.069Z,15.46
2023-05-16T15:16:47.329Z,15.55
2023-05-16T15:17:35.737Z,15.55
2023-05-16T15:19:13.979Z,15.80
2023-05-16T15:21:41.052Z,16.08
2023-05-16T15:22:35.776Z,16.08
2023-05-16T15:24:08.324Z,15.98
2023-05-16T15:26:35.178Z,16.16
2023-05-16T15:27:35.753Z,16.16
2023-05-16T15:29:01.548Z,15.61
2023-05-16T15:31:28.154Z,15.84
2023-05-16T15:32:35.762Z,15.84
2023-05-16T15:33:54.607Z,15.83
2023-05-16T15:36:21.127Z,15.75
2023-05-16T15:37:35.752Z,15.75
2023-05-16T15:38:47.703Z,15.58
2023-05-16T15:41:31.413Z,15.31
2023-05-16T15:42:35.855Z,15.31
2023-05-16T15:44:02.186Z,16.11
2023-05-16T15:46:30.360Z,15.11
2023-05-16T15:47:35.752Z,15.11
2023-05-16T15:48:56.972Z,16.16
2023-05-16T15:51:23.568Z,15.83
2023-05-16T15:52:35.742Z,15.83
2023-05-16T15:53:50.357Z,15.87
2023-05-16T15:56:18.927Z,15.22
2023-05-16T15:57:35.740Z,15.22
2023-05-16T15:58:46.840Z,15.23
2023-05-16T16:01:13.405Z,14.87
2023-05-16T16:02:38.759Z,14.87
2023-05-16T16:03:41.665Z,14.63
2023-05-16T16:06:08.377Z,15.01
2023-05-16T16:07:35.761Z,15.01
2023-05-16T16:08:34.871Z,15.13
2023-05-16T16:11:01.293Z,14.61
2023-05-16T16:12:35.730Z,14.61
2023-05-16T16:13:27.802Z,14.71
2023-05-16T16:15:54.347Z,14.87
2023-05-16T16:17:35.757Z,14.87
2023-05-16T16:18:21.295Z,14.48
2023-05-16T16:20:47.828Z,15.08
2023-05-16T16:22:35.734Z,15.08
2023-05-16T16:23:14.298Z,14.80
2023-05-16T16:25:40.878Z,14.61
2023-05-16T16:27:35.765Z,14.61
2023-05-16T16:28:07.384Z,14.74
2023-05-16T16:30:33.820Z,14.14
2023-05-16T16:32:35.777Z,14.14
2023-05-16T16:33:00.642Z,14.18
2023-05-16T16:35:28.895Z,13.80
2023-05-16T16:37:35.758Z,13.80
2023-05-16T16:40:28.915Z,13.84
2023-05-16T16:42:35.746Z,13.84
2023-05-16T16:42:55.529Z,13.50
2023-05-16T16:45:22.630Z,13.17
2023-05-16T16:47:35.755Z,13.17
2023-05-16T16:47:49.212Z,13.11
2023-05-16T16:50:15.781Z,13.34
2023-05-16T16:52:35.754Z,13.34
2023-05-16T16:52:42.841Z,13.05
2023-05-16T16:55:09.477Z,13.26
2023-05-16T16:57:35.995Z,13.04
2023-05-16T16:57:36.180Z,13.04
2023-05-16T17:00:02.469Z,12.70
2023-05-16T17:02:28.989Z,12.97
2023-05-16T17:02:35.891Z,12.97
2023-05-16T17:04:55.754Z,13.31
2023-05-16T17:07:22.155Z,12.55
2023-05-16T17:07:35.734Z,12.55
2023-05-16T17:09:48.605Z,13.24
2023-05-16T17:12:18.949Z,13.12
2023-05-16T17:12:35.752Z,13.12
2023-05-16T17:14:50.276Z,12.92
2023-05-16T17:17:18.498Z,12.65
2023-05-16T17:17:35.796Z,12.65
2023-05-16T17:19:47.906Z,12.56
2023-05-16T17:22:14.603Z,12.88
2023-05-16T17:22:35.759Z,12.88
2023-05-16T17:24:41.167Z,12.29
2023-05-16T17:27:07.657Z,12.93
2023-05-16T17:27:35.748Z,12.93
2023-05-16T17:29:34.145Z,12.50
2023-05-16T17:32:00.998Z,12.76
2023-05-16T17:32:35.839Z,12.76
2023-05-16T17:34:27.482Z,12.08
2023-05-16T17:36:54.138Z,12.70
2023-05-16T17:37:35.732Z,12.70
2023-05-16T17:39:20.732Z,12.76
2023-05-16T17:41:47.413Z,12.72
2023-05-16T17:42:35.758Z,12.72
2023-05-16T17:44:13.871Z,12.74
2023-05-16T17:46:40.508Z,12.73
2023-05-16T17:47:35.802Z,12.73
2023-05-16T17:49:07.929Z,12.71
2023-05-16T17:51:54.118Z,11.58
2023-05-16T17:52:35.728Z,11.58
2023-05-16T17:54:22.020Z,12.60
2023-05-16T17:56:49.636Z,12.57
2023-05-16T17:57:35.750Z,12.57
2023-05-16T17:59:16.687Z,12.49
2023-05-16T18:01:43.660Z,12.58
2023-05-16T18:02:38.410Z,12.58
2023-05-16T18:04:12.385Z,12.55
2023-05-16T18:06:38.948Z,12.49
2023-05-16T18:07:35.773Z,12.49
2023-05-16T18:09:06.963Z,12.14
2023-05-16T18:11:34.682Z,11.91
2023-05-16T18:12:35.733Z,11.91
2023-05-16T18:14:02.079Z,11.69
2023-05-16T18:16:30.098Z,12.34
2023-05-16T18:17:35.853Z,12.34
2023-05-16T18:19:00.137Z,11.42
2023-05-16T18:21:26.810Z,12.26
2023-05-16T18:22:35.733Z,12.26
2023-05-16T18:23:54.501Z,12.21
2023-05-16T18:26:21.936Z,11.76
2023-05-16T18:27:35.756Z,11.76
2023-05-16T18:28:48.578Z,12.06
2023-05-16T18:31:15.106Z,11.50
2023-05-16T18:32:35.829Z,11.50
2023-05-16T18:33:41.561Z,11.99
2023-05-16T18:36:08.313Z,11.92
2023-05-16T18:37:35.876Z,11.92
2023-05-16T18:38:34.838Z,11.71
2023-05-16T18:41:01.499Z,11.82
2023-05-16T18:42:35.765Z,11.82
2023-05-16T18:43:27.949Z,12.04
2023-05-16T18:45:54.363Z,11.99
2023-05-16T18:47:35.781Z,11.99
2023-05-16T18:48:21.064Z,11.32
2023-05-16T18:50:47.548Z,11.93
2023-05-16T18:52:35.741Z,11.93
2023-05-16T18:53:14.007Z,11.61
2023-05-16T18:55:40.468Z,11.42
2023-05-16T18:57:35.788Z,11.42
2023-05-16T18:58:07.042Z,11.85
2023-05-16T19:00:34.306Z,11.71
2023-05-16T19:02:42.179Z,11.71
2023-05-16T19:03:01.238Z,11.38
2023-05-16T19:05:28.647Z,11.81
2023-05-16T19:07:35.780Z,11.81
2023-05-16T19:07:55.406Z,11.82
2023-05-16T19:10:22.045Z,11.56
2023-05-16T19:12:35.784Z,11.56
2023-05-16T19:12:49.293Z,11.61
2023-05-16T19:15:16.057Z,11.75
2023-05-16T19:17:35.888Z,11.75
2023-05-16T19:17:43.009Z,11.76
2023-05-16T19:20:10.882Z,11.09
2023-05-16T19:22:35.771Z,11.09
2023-05-16T19:22:37.718Z,11.68
2023-05-16T19:25:05.303Z,11.68
2023-05-16T19:27:32.075Z,11.70
2023-05-16T19:27:35.763Z,11.70
2023-05-16T19:29:58.636Z,11.63
2023-05-16T19:32:25.327Z,11.06
2023-05-16T19:32:35.888Z,11.06
2023-05-16T19:34:52.212Z,11.21
2023-05-16T19:37:18.745Z,11.40
2023-05-16T19:37:35.885Z,11.40
2023-05-16T19:39:45.222Z,11.52
2023-05-16T19:42:11.819Z,11.52
2023-05-16T19:42:35.772Z,11.52
2023-05-16T19:44:38.236Z,11.20
2023-05-16T19:47:05.031Z,11.31
2023-05-16T19:47:35.837Z,11.31
2023-05-16T19:49:31.881Z,11.50
2023-05-16T19:51:58.516Z,11.47
2023-05-16T19:52:35.753Z,11.47
2023-05-16T19:54:24.896Z,11.47
2023-05-16T19:56:51.347Z,10.89
2023-05-16T19:57:35.752Z,10.89
2023-05-16T19:59:17.859Z,11.40
2023-05-16T20:01:44.280Z,11.27
2023-05-16T20:02:35.795Z,11.27
2023-05-16T20:04:11.728Z,10.89
2023-05-16T20:06:41.216Z,10.92
2023-05-16T20:07:35.772Z,10.92
2023-05-16T20:09:07.837Z,11.18
2023-05-16T20:11:34.505Z,11.16
2023-05-16T20:12:35.837Z,11.16
2023-05-16T20:14:00.918Z,11.05
2023-05-16T20:16:27.543Z,10.21
2023-05-16T20:17:35.799Z,10.21
2023-05-16T20:18:54.383Z,10.73
2023-05-16T20:21:20.961Z,10.60
2023-05-16T20:22:35.766Z,10.60
2023-05-16T20:23:47.486Z,10.75
2023-05-16T20:26:14.963Z,10.85
2023-05-16T20:27:35.772Z,10.85
2023-05-16T20:28:42.116Z,9.49
2023-05-16T20:31:08.638Z,10.85
2023-05-16T20:32:35.862Z,10.85
2023-05-16T20:33:35.254Z,10.47
2023-05-16T20:36:02.177Z,10.78
2023-05-16T20:37:35.761Z,10.78
2023-05-16T20:38:28.705Z,10.71
2023-05-16T20:40:55.675Z,10.76
2023-05-16T20:42:35.844Z,10.76
2023-05-16T20:43:22.385Z,10.37
2023-05-16T20:45:49.028Z,10.43
2023-05-16T20:47:35.794Z,10.43
2023-05-16T20:48:15.995Z,10.66
2023-05-16T20:50:42.468Z,10.72
2023-05-16T20:52:35.785Z,10.72
2023-05-16T20:53:08.840Z,10.37
2023-05-16T20:55:35.420Z,10.44
2023-05-16T20:57:35.758Z,10.44
2023-05-16T20:58:01.974Z,10.70
2023-05-16T21:00:28.457Z,10.70
2023-05-16T21:02:35.837Z,10.70
2023-05-16T21:02:54.925Z,10.70
2023-05-16T21:05:25.653Z,10.72
2023-05-16T21:07:35.768Z,10.72
2023-05-16T21:07:52.817Z,10.69
2023-05-16T21:10:19.361Z,10.61
2023-05-16T21:12:35.771Z,10.61
2023-05-16T21:12:45.732Z,10.68
2023-05-16T21:15:12.243Z,10.06
2023-05-16T21:17:35.853Z,10.06
2023-05-16T21:17:40.775Z,10.42
2023-05-16T21:20:08.268Z,10.70
2023-05-16T21:22:34.771Z,10.21
2023-05-16T21:22:35.781Z,10.21
2023-05-16T21:25:01.304Z,10.67
2023-05-16T21:27:27.719Z,10.66
2023-05-16T21:27:35.779Z,10.66
2023-05-16T21:29:54.191Z,10.62